メインページ
METAR-TAF:

METAR-TAF

空港 :

ヴィエンチャン, ラオス

ワットタイ国際空港

緯度: 17-57N, 経度: 102-34E, 海抜: 171m

現時点の気象観測

当レポートは3時間4分前の16:30(UTC)に作成
の風 10kt
気温 27°C
湿度 62%
気圧 1013 hPa
視程: 4000m
高度4000ftの雲はほとんどない

METAR: VLVT 251630Z 09010KT 4000 BR FEW040 27/19 Q1013 NOSIG

時間: 02:34 (19:34 UTC)

予報

当レポートは2時間34分前の17:00(UTC)に作成
予報は25日の 18時(UTC)から 26日の 18時(UTC)まで有効
北西の風 6kt
視程: 7000m
高度2000ftの雲は散在している
高度5000ftの雲は散在している
25日の 18時(UTC)から 25日の 22時(UTC)まで一時的に
視程: 4000m
高度4000ftの千切れ雲あり

TAF: VLVT 251700Z 2518/2618 32006KT 7000 SCT020 SCT050 TEMPO 2518/2522 4000 BR BKN040

4,000以上の空港の気象観測と天気予報(METAR報とTAF報)

利用可能な観測所は地図上に黄色い丸と赤い丸で示す。

丸の上にカーソルを重ねると観測所名を参照できる。

次にクリックすると気象観測と天気予報を参照できる。

マップの切り替え:黒色「×」印の緑ボタンをクリックして拡大、「-」印の緑ボタンをクリックして縮小、緑色の三角印をクリックして隣りの地図に切り替え


METAR-TAF: